Clinton, Utah
Current Conditions -  °F | °C
As of 3:58 PM on Thursday 23 Oct 2014 (Local Time) from KHIF Reporting Station
Clear Clear  
Wind Chill: 68°   Ceiling: Unl
Heat Index: 68°   Visibility: 10mi
Dew Point: 33°   Wind: 0mph
Humidity: 28%   Direction: NA
Pressure: 30.09"   Gusts: NA
Location:  41.123°N, 112.063°W
Report Text: KHIF 232158Z AUTO 00000KT 10SM CLR 20/01 A3009 RMK AO2 SLP155 T01990006
Loading
Personal Weather Stations






























Interactive Weather Map
Tropical Storm Tracking
New forecast layout! Learn more

10-Day Weather Forecast

Advertisements
Track Severe Weather on mobile